createdAt,value
2018-11-26T00:01:59.045Z,23.87
2018-11-26T00:04:30.122Z,20.80
2018-11-26T00:07:01.218Z,21.67
2018-11-26T00:09:32.147Z,23.57
2018-11-26T00:12:04.309Z,22.83
2018-11-26T00:14:35.526Z,23.33
2018-11-26T00:17:06.583Z,24.40
2018-11-26T00:19:37.637Z,25.90
2018-11-26T00:22:08.825Z,23.80
2018-11-26T00:24:40.067Z,23.17
2018-11-26T00:27:11.093Z,22.77
2018-11-26T00:29:42.374Z,24.47
2018-11-26T00:32:13.454Z,23.37
2018-11-26T00:34:44.752Z,25.33
2018-11-26T00:37:15.852Z,25.83
2018-11-26T00:39:47.519Z,23.53
2018-11-26T00:42:18.661Z,26.17
2018-11-26T00:44:49.594Z,28.67
2018-11-26T00:47:20.766Z,28.43
2018-11-26T00:49:52.036Z,25.93
2018-11-26T00:52:23.117Z,26.47
2018-11-26T00:54:54.238Z,27.27
2018-11-26T00:57:25.182Z,28.20
2018-11-26T00:59:56.272Z,30.73
2018-11-26T01:02:27.380Z,25.70
2018-11-26T01:04:59.274Z,26.73
2018-11-26T01:07:30.433Z,27.57
2018-11-26T01:10:01.879Z,27.87
2018-11-26T01:12:32.879Z,27.80
2018-11-26T01:15:04.062Z,25.27
2018-11-26T01:17:35.359Z,25.97
2018-11-26T01:20:06.937Z,26.13
2018-11-26T01:22:38.373Z,25.17
2018-11-26T01:25:09.650Z,26.00
2018-11-26T01:27:40.793Z,25.67
2018-11-26T01:30:12.369Z,25.43
2018-11-26T01:32:43.562Z,29.07
2018-11-26T01:35:14.618Z,28.67
2018-11-26T01:37:45.760Z,26.80
2018-11-26T01:40:43.797Z,25.80
2018-11-26T01:43:15.431Z,24.07
2018-11-26T01:45:46.695Z,26.37
2018-11-26T01:48:17.851Z,26.53
2018-11-26T01:50:48.985Z,24.97
2018-11-26T01:53:20.120Z,26.60
2018-11-26T01:55:51.177Z,25.03
2018-11-26T01:58:22.357Z,23.30
2018-11-26T02:00:53.381Z,27.87
2018-11-26T02:03:24.835Z,28.53
2018-11-26T02:05:56.871Z,28.67
2018-11-26T02:08:28.047Z,26.37
2018-11-26T02:10:59.222Z,25.37
2018-11-26T02:13:30.419Z,25.83
2018-11-26T02:16:01.781Z,24.43
2018-11-26T02:18:32.797Z,26.07
2018-11-26T02:21:04.058Z,23.73
2018-11-26T02:23:35.317Z,25.03
2018-11-26T02:26:06.636Z,24.50
2018-11-26T02:28:37.920Z,26.33
2018-11-26T02:31:09.059Z,28.57
2018-11-26T02:33:40.318Z,26.00
2018-11-26T02:36:11.376Z,28.40
2018-11-26T02:38:42.646Z,27.40
2018-11-26T02:41:13.864Z,25.80
2018-11-26T02:43:45.043Z,27.47
2018-11-26T02:46:16.284Z,26.50
2018-11-26T02:48:47.481Z,29.90
2018-11-26T02:51:18.602Z,27.50
2018-11-26T02:53:49.788Z,30.67
2018-11-26T02:56:20.793Z,27.60
2018-11-26T02:58:51.803Z,27.63
2018-11-26T03:01:23.054Z,30.83
2018-11-26T03:03:54.087Z,32.40
2018-11-26T03:06:25.334Z,31.90
2018-11-26T03:08:57.805Z,30.33
2018-11-26T03:11:28.854Z,29.43
2018-11-26T03:13:59.994Z,32.40
2018-11-26T03:16:31.354Z,33.63
2018-11-26T03:19:02.551Z,35.03
2018-11-26T03:21:33.692Z,35.10
2018-11-26T03:24:04.858Z,32.13
2018-11-26T03:26:35.967Z,34.53
2018-11-26T03:29:07.173Z,33.87
2018-11-26T03:31:38.323Z,37.20
2018-11-26T03:34:09.416Z,32.90
2018-11-26T03:36:40.387Z,36.33
2018-11-26T03:39:11.539Z,36.73
2018-11-26T03:41:42.622Z,36.70
2018-11-26T03:44:13.640Z,37.70
2018-11-26T03:46:44.850Z,43.73
2018-11-26T03:49:15.778Z,35.30
2018-11-26T03:51:46.851Z,38.73
2018-11-26T03:54:17.879Z,41.03
2018-11-26T03:56:48.963Z,38.60
2018-11-26T03:59:19.947Z,34.07
2018-11-26T04:01:50.895Z,37.40
2018-11-26T04:04:21.894Z,41.30
2018-11-26T04:06:52.893Z,39.10
2018-11-26T04:09:23.929Z,36.87
2018-11-26T04:11:54.989Z,36.83
2018-11-26T04:14:26.405Z,35.13
2018-11-26T04:16:57.404Z,38.07
2018-11-26T04:19:28.422Z,34.53
2018-11-26T04:21:59.575Z,37.03
2018-11-26T04:24:30.684Z,35.77
2018-11-26T04:27:01.838Z,38.33
2018-11-26T04:29:32.868Z,38.63
2018-11-26T04:32:03.876Z,33.87
2018-11-26T04:34:35.134Z,38.37
2018-11-26T04:37:06.488Z,41.20
2018-11-26T04:39:37.581Z,41.10
2018-11-26T04:42:08.927Z,37.57
2018-11-26T04:44:40.014Z,39.80
2018-11-26T04:47:11.119Z,36.47
2018-11-26T04:49:42.193Z,41.53
2018-11-26T04:52:13.430Z,33.83
2018-11-26T04:54:44.895Z,33.87
2018-11-26T04:57:15.931Z,33.00
2018-11-26T04:59:46.914Z,36.43
2018-11-26T05:02:18.060Z,36.83
2018-11-26T05:04:49.161Z,33.43
2018-11-26T05:07:20.194Z,32.50
2018-11-26T05:09:51.327Z,36.10
2018-11-26T05:12:22.313Z,36.23
2018-11-26T05:14:53.471Z,31.93
2018-11-26T05:17:24.571Z,32.17
2018-11-26T05:19:55.662Z,35.00
2018-11-26T05:22:26.863Z,30.07
2018-11-26T05:24:57.980Z,33.17
2018-11-26T05:27:28.976Z,36.00
2018-11-26T05:30:00.136Z,34.27
2018-11-26T05:32:31.065Z,35.67
2018-11-26T05:35:02.050Z,31.07
2018-11-26T05:37:33.142Z,28.87
2018-11-26T05:40:04.323Z,29.07
2018-11-26T05:42:35.510Z,30.57
2018-11-26T05:45:09.002Z,29.50
2018-11-26T05:47:40.151Z,29.07
2018-11-26T05:50:17.380Z,33.00
2018-11-26T05:52:48.433Z,31.00
2018-11-26T05:55:19.804Z,30.40
2018-11-26T05:57:50.926Z,29.53
2018-11-26T06:00:36.228Z,25.40
2018-11-26T06:03:07.929Z,32.23
2018-11-26T06:05:38.845Z,28.63
2018-11-26T06:08:10.038Z,25.83
2018-11-26T06:10:41.282Z,29.27
2018-11-26T06:13:12.475Z,24.37
2018-11-26T06:15:43.695Z,26.53
2018-11-26T06:18:15.014Z,29.67
2018-11-26T06:20:46.285Z,27.10
2018-11-26T06:23:17.456Z,27.93
2018-11-26T06:25:48.529Z,26.67
2018-11-26T06:28:19.442Z,30.03
2018-11-26T06:30:50.366Z,25.77
2018-11-26T06:33:21.390Z,27.93
2018-11-26T06:35:52.395Z,28.40
2018-11-26T06:38:23.380Z,30.37
2018-11-26T06:40:54.311Z,28.87
2018-11-26T06:43:25.264Z,29.40
2018-11-26T06:45:56.202Z,30.00
2018-11-26T06:48:27.110Z,32.53
2018-11-26T06:50:58.033Z,27.40
2018-11-26T06:53:28.886Z,32.77
2018-11-26T06:55:59.927Z,33.40
2018-11-26T06:58:30.866Z,35.20
2018-11-26T07:01:02.017Z,32.37
2018-11-26T07:03:32.877Z,35.13
2018-11-26T07:06:03.922Z,37.47
2018-11-26T07:08:34.770Z,36.50
2018-11-26T07:11:06.062Z,38.37
2018-11-26T07:13:37.138Z,36.50
2018-11-26T07:16:08.416Z,42.70
2018-11-26T07:18:39.342Z,36.97
2018-11-26T07:21:10.378Z,37.73
2018-11-26T07:23:41.223Z,39.63
2018-11-26T07:26:12.161Z,37.43
2018-11-26T07:28:43.017Z,38.33
2018-11-26T07:31:13.964Z,40.47
2018-11-26T07:33:44.980Z,43.73
2018-11-26T07:36:15.911Z,40.27
2018-11-26T07:38:46.752Z,41.90
2018-11-26T07:41:17.747Z,42.57
2018-11-26T07:43:48.666Z,44.70
2018-11-26T07:46:19.732Z,37.80
2018-11-26T07:48:50.581Z,42.50
2018-11-26T07:51:21.615Z,40.93
2018-11-26T07:53:52.510Z,45.00
2018-11-26T07:56:23.460Z,44.27
2018-11-26T07:58:54.357Z,46.27
2018-11-26T08:01:25.619Z,46.70
2018-11-26T08:03:56.599Z,46.17
2018-11-26T08:06:27.629Z,43.17
2018-11-26T08:08:58.475Z,47.17
2018-11-26T08:11:29.411Z,46.37
2018-11-26T08:14:00.334Z,48.13
2018-11-26T08:16:31.289Z,46.07
2018-11-26T08:19:02.253Z,44.57
2018-11-26T08:21:33.185Z,48.63
2018-11-26T08:24:04.202Z,43.47
2018-11-26T08:26:35.139Z,47.07
2018-11-26T08:29:06.809Z,48.23
2018-11-26T08:31:37.698Z,48.53
2018-11-26T08:34:08.756Z,44.07
2018-11-26T08:36:48.153Z,40.93
2018-11-26T08:39:20.628Z,41.13
2018-11-26T08:41:54.768Z,43.10
2018-11-26T08:44:47.064Z,43.90
2018-11-26T08:47:34.842Z,38.00
2018-11-26T08:50:05.939Z,42.07
2018-11-26T08:52:36.951Z,36.90
2018-11-26T08:55:09.142Z,38.50
2018-11-26T08:57:40.083Z,39.23
2018-11-26T09:00:12.657Z,37.60
2018-11-26T09:02:49.683Z,41.13
2018-11-26T09:05:37.024Z,35.37
2018-11-26T09:08:08.097Z,42.73
2018-11-26T09:10:39.204Z,37.73
2018-11-26T09:13:10.333Z,37.53
2018-11-26T09:15:41.266Z,38.83
2018-11-26T09:18:12.370Z,38.70
2018-11-26T09:20:43.304Z,38.17
2018-11-26T09:23:14.309Z,37.47
2018-11-26T09:25:45.165Z,35.47
2018-11-26T09:28:16.205Z,36.00
2018-11-26T09:30:47.298Z,35.67
2018-11-26T09:33:18.403Z,36.40
2018-11-26T09:35:49.441Z,34.90
2018-11-26T09:38:20.365Z,34.27
2018-11-26T09:40:51.473Z,37.73
2018-11-26T09:43:22.312Z,35.00
2018-11-26T09:45:53.163Z,37.33
2018-11-26T09:48:24.090Z,37.30
2018-11-26T09:50:55.151Z,32.57
2018-11-26T09:53:26.086Z,36.47
2018-11-26T09:55:57.073Z,31.93
2018-11-26T09:58:28.017Z,35.80
2018-11-26T10:00:59.122Z,33.50
2018-11-26T10:03:30.048Z,30.17
2018-11-26T10:06:00.887Z,35.03
2018-11-26T10:08:31.770Z,31.37
2018-11-26T10:11:02.859Z,34.23
2018-11-26T10:13:33.706Z,34.40
2018-11-26T10:16:04.723Z,35.07
2018-11-26T10:18:35.612Z,31.70
2018-11-26T10:21:06.627Z,34.60
2018-11-26T10:23:37.603Z,35.17
2018-11-26T10:26:08.535Z,31.77
2018-11-26T10:28:39.584Z,32.27
2018-11-26T10:31:10.523Z,27.37
2018-11-26T10:33:41.444Z,28.07
2018-11-26T10:36:12.270Z,27.57
2018-11-26T10:38:43.109Z,29.67
2018-11-26T10:41:14.169Z,29.13
2018-11-26T10:43:45.093Z,31.47
2018-11-26T10:46:16.239Z,28.70
2018-11-26T10:48:47.169Z,32.20
2018-11-26T10:51:18.097Z,30.13
2018-11-26T10:53:49.020Z,34.40
2018-11-26T10:56:20.001Z,30.10
2018-11-26T10:58:50.930Z,30.27
2018-11-26T11:01:45.466Z,27.53
2018-11-26T11:04:16.384Z,29.03
2018-11-26T11:06:47.396Z,29.13
2018-11-26T11:09:18.334Z,26.47
2018-11-26T11:11:49.167Z,28.80
2018-11-26T11:14:19.965Z,26.00
2018-11-26T11:16:50.776Z,28.63
2018-11-26T11:19:21.715Z,26.87
2018-11-26T11:21:52.527Z,27.63
2018-11-26T11:24:23.366Z,25.60
2018-11-26T11:26:54.492Z,26.10
2018-11-26T11:29:25.427Z,27.57
2018-11-26T11:31:56.371Z,26.20
2018-11-26T11:34:27.262Z,25.37
2018-11-26T11:36:58.277Z,27.00
2018-11-26T11:39:29.416Z,30.07
2018-11-26T11:42:00.236Z,30.80
2018-11-26T11:44:31.186Z,30.73
2018-11-26T11:47:02.017Z,28.03
2018-11-26T11:49:32.857Z,27.47
2018-11-26T11:52:03.861Z,26.67
2018-11-26T11:54:34.965Z,28.07
2018-11-26T11:57:06.444Z,28.50
2018-11-26T11:59:37.273Z,29.87
2018-11-26T12:02:10.079Z,30.60
2018-11-26T12:04:40.920Z,32.43
2018-11-26T12:07:11.831Z,33.87
2018-11-26T12:09:42.852Z,29.17
2018-11-26T12:12:13.863Z,31.47
2018-11-26T12:14:44.742Z,26.10
2018-11-26T12:17:16.004Z,29.40
2018-11-26T12:19:47.100Z,27.50
2018-11-26T12:22:18.012Z,31.47
2018-11-26T12:24:49.111Z,30.33
2018-11-26T12:27:20.650Z,27.93
2018-11-26T12:29:51.672Z,29.37
2018-11-26T12:32:22.565Z,30.93
2018-11-26T12:34:53.698Z,31.43
2018-11-26T12:37:24.834Z,30.57
2018-11-26T12:39:56.040Z,32.23
2018-11-26T12:42:26.873Z,34.37
2018-11-26T12:44:57.981Z,37.13
2018-11-26T12:47:28.917Z,34.57
2018-11-26T12:49:59.923Z,35.60
2018-11-26T12:52:31.172Z,33.50
2018-11-26T12:55:02.017Z,36.33
2018-11-26T12:57:33.225Z,33.10
2018-11-26T13:00:04.258Z,35.07
2018-11-26T13:02:35.120Z,37.13
2018-11-26T13:05:07.201Z,37.90
2018-11-26T13:07:38.212Z,34.43
2018-11-26T13:10:17.228Z,33.33
2018-11-26T13:12:49.175Z,35.57
2018-11-26T13:15:24.686Z,34.07
2018-11-26T13:17:55.621Z,37.70
2018-11-26T13:20:28.625Z,34.33
2018-11-26T13:22:59.768Z,36.80
2018-11-26T13:25:32.600Z,35.60
2018-11-26T13:28:04.770Z,35.90
2018-11-26T13:30:46.859Z,40.50
2018-11-26T13:33:19.680Z,40.40
2018-11-26T13:35:51.324Z,35.13
2018-11-26T13:38:22.255Z,36.30
2018-11-26T13:40:53.441Z,39.80
2018-11-26T13:43:24.368Z,38.77
2018-11-26T13:45:55.205Z,40.30
2018-11-26T13:48:26.162Z,41.73
2018-11-26T13:50:58.165Z,39.10
2018-11-26T13:53:29.029Z,41.47
2018-11-26T13:56:00.192Z,42.33
2018-11-26T13:58:31.077Z,41.47
2018-11-26T14:01:01.882Z,44.13
2018-11-26T14:03:33.106Z,45.23
2018-11-26T14:06:04.107Z,41.63
2018-11-26T14:08:34.965Z,46.03
2018-11-26T14:11:06.048Z,45.50
2018-11-26T14:13:37.151Z,43.23
2018-11-26T14:16:08.561Z,44.73
2018-11-26T14:18:39.408Z,48.50
2018-11-26T14:21:10.418Z,46.73
2018-11-26T14:23:41.267Z,45.67
2018-11-26T14:26:12.701Z,45.00
2018-11-26T14:28:43.652Z,47.03
2018-11-26T14:31:15.563Z,50.30
2018-11-26T14:33:47.037Z,50.77
2018-11-26T14:36:17.955Z,48.60
2018-11-26T14:38:48.882Z,49.53
2018-11-26T14:41:19.903Z,49.63
2018-11-26T14:43:51.104Z,50.00
2018-11-26T14:46:22.028Z,51.43
2018-11-26T14:48:53.044Z,49.23
2018-11-26T14:51:24.320Z,48.80
2018-11-26T14:53:55.331Z,51.67
2018-11-26T14:56:26.243Z,50.67
2018-11-26T14:58:57.112Z,53.30
2018-11-26T15:01:28.031Z,54.20
2018-11-26T15:03:59.053Z,51.63
2018-11-26T15:06:29.977Z,55.63
2018-11-26T15:09:00.907Z,52.37
2018-11-26T15:11:31.838Z,53.13
2018-11-26T15:14:02.770Z,54.37
2018-11-26T15:16:33.715Z,55.73
2018-11-26T15:19:04.731Z,53.90
2018-11-26T15:21:35.641Z,55.83
2018-11-26T15:24:06.701Z,55.90
2018-11-26T15:26:37.619Z,52.43
2018-11-26T15:29:08.682Z,53.93
2018-11-26T15:31:39.706Z,50.17
2018-11-26T15:34:10.734Z,49.70
2018-11-26T15:36:41.695Z,57.23
2018-11-26T15:39:12.745Z,55.07
2018-11-26T15:41:43.651Z,52.63
2018-11-26T15:44:14.619Z,51.70
2018-11-26T15:46:45.792Z,54.23
2018-11-26T15:49:16.735Z,55.30
2018-11-26T15:51:47.658Z,52.17
2018-11-26T15:54:18.582Z,53.50
2018-11-26T15:56:49.547Z,54.73
2018-11-26T15:59:20.737Z,54.43
2018-11-26T16:01:51.680Z,51.03
2018-11-26T16:04:22.619Z,50.30
2018-11-26T16:06:53.726Z,53.83
2018-11-26T16:09:24.811Z,49.13
2018-11-26T16:11:55.627Z,44.70
2018-11-26T16:14:26.533Z,50.17
2018-11-26T16:16:57.525Z,55.17
2018-11-26T16:19:28.429Z,52.80
2018-11-26T16:21:59.353Z,56.93
2018-11-26T16:24:30.275Z,57.47
2018-11-26T16:27:01.535Z,60.60
2018-11-26T16:29:32.455Z,63.03
2018-11-26T16:32:03.488Z,53.37
2018-11-26T16:34:34.327Z,52.53
2018-11-26T16:37:05.269Z,53.40
2018-11-26T16:39:36.198Z,55.87
2018-11-26T16:42:07.111Z,52.27
2018-11-26T16:44:38.121Z,56.27
2018-11-26T16:47:09.063Z,53.23
2018-11-26T16:49:40.156Z,58.63
2018-11-26T16:52:11.003Z,58.30
2018-11-26T16:54:41.838Z,56.53
2018-11-26T16:57:12.838Z,62.10
2018-11-26T16:59:43.759Z,57.70
2018-11-26T17:02:14.701Z,56.10
2018-11-26T17:04:45.811Z,56.73
2018-11-26T17:07:16.723Z,55.93
2018-11-26T17:09:47.839Z,56.67
2018-11-26T17:12:18.808Z,53.57
2018-11-26T17:14:49.759Z,59.27
2018-11-26T17:17:20.682Z,60.67
2018-11-26T17:19:51.698Z,56.13
2018-11-26T17:22:22.636Z,59.63
2018-11-26T17:24:53.602Z,54.73
2018-11-26T17:27:24.763Z,56.50
2018-11-26T17:29:55.848Z,52.33
2018-11-26T17:32:26.895Z,54.17
2018-11-26T17:34:57.837Z,64.93
2018-11-26T17:37:29.103Z,61.80
2018-11-26T17:39:59.971Z,54.40
2018-11-26T17:42:30.897Z,63.20
2018-11-26T17:45:01.832Z,64.73
2018-11-26T17:47:33.194Z,65.83
2018-11-26T17:50:04.252Z,64.17
2018-11-26T17:52:35.104Z,56.33
2018-11-26T17:55:06.539Z,67.77
2018-11-26T17:57:37.560Z,62.37
2018-11-26T18:00:22.666Z,71.03
2018-11-26T18:02:53.588Z,68.70
2018-11-26T18:05:26.509Z,73.30
2018-11-26T18:08:14.593Z,61.03
2018-11-26T18:10:45.536Z,59.37
2018-11-26T18:13:16.725Z,70.13
2018-11-26T18:15:47.836Z,62.77
2018-11-26T18:18:20.181Z,59.13
2018-11-26T18:20:51.346Z,66.30
2018-11-26T18:23:22.205Z,68.33
2018-11-26T18:25:53.341Z,65.47
2018-11-26T18:28:24.264Z,61.77
2018-11-26T18:30:55.586Z,60.70
2018-11-26T18:33:26.507Z,61.77
2018-11-26T18:35:57.433Z,58.90
2018-11-26T18:38:28.448Z,60.70
2018-11-26T18:40:59.373Z,54.17
2018-11-26T18:43:30.393Z,55.47
2018-11-26T18:46:01.639Z,55.33
2018-11-26T18:48:32.563Z,61.63
2018-11-26T18:51:03.761Z,53.50
2018-11-26T18:53:34.833Z,54.57
2018-11-26T18:56:06.107Z,51.53
2018-11-26T18:58:38.085Z,53.33
2018-11-26T19:01:10.049Z,46.43
2018-11-26T19:03:41.259Z,54.80
2018-11-26T19:06:12.270Z,53.77
2018-11-26T19:08:43.181Z,50.63
2018-11-26T19:11:16.573Z,44.17
2018-11-26T19:14:00.046Z,49.53
2018-11-26T19:16:37.213Z,48.57
2018-11-26T19:19:08.409Z,45.33
2018-11-26T19:21:39.647Z,46.93
2018-11-26T19:24:10.671Z,49.37
2018-11-26T19:26:41.707Z,51.40
2018-11-26T19:29:12.736Z,50.63
2018-11-26T19:31:43.939Z,52.97
2018-11-26T19:34:14.792Z,47.10
2018-11-26T19:36:45.733Z,54.37
2018-11-26T19:39:16.738Z,51.03
2018-11-26T19:41:47.666Z,48.73
2018-11-26T19:44:18.741Z,47.37
2018-11-26T19:46:49.681Z,47.27
2018-11-26T19:49:20.777Z,48.47
2018-11-26T19:51:51.626Z,47.00
2018-11-26T19:54:22.659Z,45.50
2018-11-26T19:56:53.658Z,41.43
2018-11-26T19:59:24.683Z,48.20
2018-11-26T20:01:55.912Z,52.00
2018-11-26T20:04:47.726Z,49.37
2018-11-26T20:07:18.965Z,51.87
2018-11-26T20:09:50.243Z,45.50
2018-11-26T20:12:21.097Z,42.53
2018-11-26T20:14:52.338Z,42.90
2018-11-26T20:17:23.557Z,46.77
2018-11-26T20:19:54.520Z,43.90
2018-11-26T20:22:25.427Z,48.77
2018-11-26T20:24:56.365Z,53.27
2018-11-26T20:27:27.460Z,52.43
2018-11-26T20:29:58.494Z,47.53
2018-11-26T20:32:30.347Z,46.10
2018-11-26T20:35:01.278Z,45.43
2018-11-26T20:37:32.131Z,48.87
2018-11-26T20:40:03.405Z,42.53
2018-11-26T20:42:34.256Z,40.43
2018-11-26T20:45:06.507Z,43.60
2018-11-26T20:47:37.968Z,41.27
2018-11-26T20:50:30.704Z,35.60
2018-11-26T20:53:02.054Z,36.70
2018-11-26T20:55:33.697Z,41.87
2018-11-26T20:58:04.663Z,68.30
2018-11-26T21:00:38.018Z,51.13
2018-11-26T21:03:11.122Z,43.07
2018-11-26T21:05:43.063Z,49.03
2018-11-26T21:08:14.224Z,40.30
2018-11-26T21:10:45.298Z,40.63
2018-11-26T21:13:17.067Z,43.33
2018-11-26T21:15:48.634Z,46.33
2018-11-26T21:18:19.730Z,47.47
2018-11-26T21:20:53.941Z,42.80
2018-11-26T21:23:30.703Z,40.17
2018-11-26T21:26:03.982Z,41.80
2018-11-26T21:28:35.028Z,42.10
2018-11-26T21:31:06.577Z,47.47
2018-11-26T21:33:37.624Z,40.63
2018-11-26T21:36:08.895Z,44.23
2018-11-26T21:38:41.504Z,42.77
2018-11-26T21:41:12.441Z,46.90
2018-11-26T21:43:43.296Z,44.53
2018-11-26T21:46:14.485Z,43.60
2018-11-26T21:48:45.499Z,48.30
2018-11-26T21:51:16.685Z,38.90
2018-11-26T21:53:47.633Z,48.93
2018-11-26T21:56:18.785Z,47.97
2018-11-26T21:58:49.633Z,49.30
2018-11-26T22:01:20.588Z,49.53
2018-11-26T22:03:52.887Z,44.80
2018-11-26T22:06:23.705Z,48.03
2018-11-26T22:08:54.936Z,52.10
2018-11-26T22:11:30.248Z,57.20
2018-11-26T22:13:57.843Z,50.57
2018-11-26T22:16:28.772Z,53.17
2018-11-26T22:18:59.961Z,52.33
2018-11-26T22:21:30.993Z,54.37
2018-11-26T22:24:02.004Z,61.20
2018-11-26T22:26:33.176Z,50.53
2018-11-26T22:29:04.378Z,52.13
2018-11-26T22:31:35.309Z,55.93
2018-11-26T22:34:06.648Z,58.43
2018-11-26T22:36:37.729Z,63.87
2018-11-26T22:39:11.181Z,60.67
2018-11-26T22:41:42.020Z,58.10
2018-11-26T22:44:12.977Z,54.97
2018-11-26T22:46:44.147Z,60.43
2018-11-26T22:49:15.044Z,64.97
2018-11-26T22:51:51.306Z,66.83
2018-11-26T22:54:18.197Z,59.90
2018-11-26T22:56:49.142Z,57.17
2018-11-26T22:59:20.186Z,69.40
2018-11-26T23:01:51.199Z,61.07
2018-11-26T23:04:22.219Z,63.67
2018-11-26T23:06:53.386Z,54.83
2018-11-26T23:09:24.413Z,57.03
2018-11-26T23:11:55.412Z,52.77
2018-11-26T23:14:26.558Z,59.00
2018-11-26T23:16:58.319Z,59.93
2018-11-26T23:19:29.179Z,64.10
2018-11-26T23:22:00.022Z,64.17
2018-11-26T23:24:30.962Z,60.77
2018-11-26T23:27:02.151Z,65.27
2018-11-26T23:29:33.105Z,57.13
2018-11-26T23:32:04.017Z,51.43
2018-11-26T23:34:34.840Z,54.60
2018-11-26T23:37:06.412Z,56.03
2018-11-26T23:39:37.363Z,60.77
2018-11-26T23:42:08.624Z,62.00
2018-11-26T23:44:39.721Z,67.97
2018-11-26T23:47:10.823Z,58.53
2018-11-26T23:49:41.746Z,67.43
2018-11-26T23:52:12.670Z,56.33
2018-11-26T23:54:44.094Z,53.50
2018-11-26T23:57:15.188Z,60.03
2018-11-26T23:59:46.015Z,58.27
